Time;durP1;ratioP1;P1;durP2;ratioP2;P2;SDS_P1;SDS_P2;PMS_P1;PMS_P2;Temp;Humidity;BMP_temperature;BMP_pressure;BME280_temperature;BME280_humidity;BME280_pressure;Samples;Min_cycle;Max_cycle;Signal;HPM_P1;HPM_P2
2021/04/13 00:01:17;;;;;;;9.57;8.57;;;1.70;83.20;;;;;;5028491;28;20467;-82
2021/04/13 00:03:45;;;;;;;9.90;8.90;;;1.70;83.50;;;;;;5015695;28;20503;-82
2021/04/13 00:06:14;;;;;;;10.53;8.60;;;1.60;84.40;;;;;;5007107;28;20490;-83
2021/04/13 00:08:42;;;;;;;9.53;8.20;;;1.60;84.80;;;;;;5016170;28;20457;-84
2021/04/13 00:11:11;;;;;;;10.10;8.30;;;1.60;86.10;;;;;;5005722;28;20453;-85
2021/04/13 00:13:40;;;;;;;9.97;8.73;;;1.50;86.90;;;;;;5006840;28;20448;-83
2021/04/13 00:16:12;;;;;;;10.70;8.60;;;1.50;87.70;;;;;;5003868;28;20817;-84
2021/04/13 00:18:41;;;;;;;12.70;7.70;;;1.50;88.20;;;;;;5017223;28;20542;-83
2021/04/13 00:21:14;;;;;;;9.37;8.37;;;1.40;88.30;;;;;;5028049;28;20455;-83
2021/04/13 00:23:42;;;;;;;9.67;8.67;;;1.40;88.40;;;;;;5023320;28;20919;-83
2021/04/13 00:26:11;;;;;;;14.60;9.10;;;1.40;89.30;;;;;;5029034;28;20924;-83
2021/04/13 00:28:42;;;;;;;11.60;8.27;;;1.40;89.70;;;;;;5036018;28;20459;-84
2021/04/13 00:31:10;;;;;;;10.60;8.93;;;1.30;89.70;;;;;;5024339;28;20527;-84
2021/04/13 00:33:39;;;;;;;9.50;8.37;;;1.30;90.30;;;;;;5025149;28;20452;-83
2021/04/13 00:36:10;;;;;;;10.00;9.00;;;1.20;90.00;;;;;;5030587;28;20470;-82
2021/04/13 00:38:39;;;;;;;10.27;8.30;;;1.20;90.80;;;;;;5030036;28;20620;-83
2021/04/13 00:41:17;;;;;;;10.07;9.07;;;1.10;90.70;;;;;;5029291;28;20531;-82
2021/04/13 00:43:48;;;;;;;10.43;9.33;;;1.10;91.20;;;;;;5021790;28;20472;-82
2021/04/13 00:46:19;;;;;;;13.50;10.33;;;1.10;91.50;;;;;;5023665;28;20773;-82
2021/04/13 00:48:47;;;;;;;12.57;10.10;;;1.10;92.10;;;;;;5028261;28;20539;-82
2021/04/13 00:51:22;;;;;;;12.63;11.00;;;1.10;92.10;;;;;;5027276;28;20457;-82
2021/04/13 00:53:51;;;;;;;16.70;12.30;;;1.10;92.20;;;;;;5022055;28;20474;-83
2021/04/13 00:56:18;;;;;;;14.80;12.67;;;1.10;92.40;;;;;;5021343;28;20463;-84
2021/04/13 00:58:51;;;;;;;12.00;9.90;;;1.10;93.20;;;;;;5030590;28;20466;-83
2021/04/13 01:01:21;;;;;;;11.97;10.43;;;1.10;92.90;;;;;;5032397;28;20447;-84
2021/04/13 01:03:53;;;;;;;11.80;10.50;;;1.20;92.40;;;;;;5034662;28;20439;-83
2021/04/13 01:06:24;;;;;;;10.83;9.73;;;1.20;91.50;;;;;;5033311;28;20455;-82
2021/04/13 01:09:01;;;;;;;11.87;10.60;;;1.30;90.40;;;;;;5034183;28;20448;-81
2021/04/13 01:11:30;;;;;;;11.33;9.30;;;1.30;90.00;;;;;;5016512;28;20471;-84
2021/04/13 01:14:00;;;;;;;11.60;8.10;;;1.30;89.50;;;;;;5025383;28;20547;-82
2021/04/13 01:16:30;;;;;;;10.50;8.97;;;1.30;88.50;;;;;;5021100;28;20468;-83
2021/04/13 01:19:04;;;;;;;14.80;8.83;;;1.30;88.00;;;;;;5024237;28;20519;-82
2021/04/13 01:21:42;;;;;;;9.80;8.80;;;1.30;88.80;;;;;;5024126;28;20466;-81
2021/04/13 01:24:12;;;;;;;9.37;8.50;;;1.30;88.50;;;;;;5020900;28;20462;-82
2021/04/13 01:26:43;;;;;;;10.27;8.30;;;1.30;88.20;;;;;;5027119;28;20463;-82
2021/04/13 01:29:10;;;;;;;10.00;9.00;;;1.20;88.80;;;;;;5012723;28;20513;-81
2021/04/13 01:31:47;;;;;;;11.67;9.00;;;1.20;88.30;;;;;;5020960;28;20959;-82
2021/04/13 01:34:20;;;;;;;11.10;8.43;;;1.30;87.80;;;;;;5029073;28;20973;-82
2021/04/13 01:37:00;;;;;;;8.93;8.03;;;1.20;87.20;;;;;;5020304;28;20889;-82
2021/04/13 01:39:27;;;;;;;10.53;8.93;;;1.30;86.70;;;;;;5020250;28;20447;-81
2021/04/13 01:41:59;;;;;;;14.07;10.23;;;1.20;86.80;;;;;;5023255;28;20454;-82
2021/04/13 01:44:31;;;;;;;14.13;10.93;;;1.30;85.20;;;;;;5022858;28;20468;-81
2021/04/13 01:46:58;;;;;;;17.07;11.63;;;1.20;85.10;;;;;;5024004;28;20539;-82
2021/04/13 01:49:26;;;;;;;17.60;10.83;;;1.20;85.00;;;;;;5025593;28;20479;-83
2021/04/13 01:51:53;;;;;;;14.57;10.77;;;1.20;84.90;;;;;;5024920;28;20873;-82
2021/04/13 01:54:21;;;;;;;16.40;12.60;;;1.20;84.50;;;;;;5026489;28;20448;-82
2021/04/13 01:57:13;;;;;;;15.93;11.60;;;1.10;85.20;;;;;;4992206;28;20558;-82
2021/04/13 01:59:43;;;;;;;18.27;11.53;;;1.00;86.40;;;;;;5020046;28;20440;-82
2021/04/13 02:02:17;;;;;;;13.03;10.93;;;1.00;86.10;;;;;;5023226;28;20450;-83
2021/04/13 02:04:50;;;;;;;13.70;9.70;;;1.00;85.50;;;;;;5022672;28;20452;-84
2021/04/13 02:07:32;;;;;;;12.67;8.90;;;1.10;84.80;;;;;;5021797;28;20444;-83
2021/04/13 02:10:06;;;;;;;11.03;8.20;;;1.10;84.00;;;;;;5023924;28;20457;-81
2021/04/13 02:12:38;;;;;;;9.00;8.10;;;1.00;84.10;;;;;;5024648;28;21173;-84
2021/04/13 02:15:12;;;;;;;9.50;7.97;;;1.00;84.00;;;;;;5021383;28;20444;-84
2021/04/13 02:17:43;;;;;;;10.30;8.40;;;1.00;84.60;;;;;;5017657;28;20981;-82
2021/04/13 02:20:14;;;;;;;10.00;8.20;;;1.00;85.40;;;;;;5023158;28;20540;-83
2021/04/13 02:22:44;;;;;;;9.30;8.37;;;0.90;86.00;;;;;;5028812;28;20913;-83
2021/04/13 02:25:13;;;;;;;9.83;8.60;;;0.80;86.40;;;;;;5014201;28;20567;-81
2021/04/13 02:27:42;;;;;;;11.20;9.07;;;0.90;86.60;;;;;;5024106;28;20451;-82
2021/04/13 02:30:12;;;;;;;9.50;8.50;;;0.90;86.80;;;;;;5020497;28;20492;-82
2021/04/13 02:32:45;;;;;;;10.50;9.23;;;0.80;86.80;;;;;;5026260;28;20451;-82
2021/04/13 02:35:20;;;;;;;10.30;9.30;;;0.80;87.10;;;;;;5024616;28;20507;-82
2021/04/13 02:37:52;;;;;;;10.40;8.20;;;0.80;87.10;;;;;;5020387;28;20483;-82
2021/04/13 02:40:23;;;;;;;9.83;8.33;;;0.80;86.50;;;;;;5018949;28;20455;-82
2021/04/13 02:42:53;;;;;;;12.60;10.13;;;0.80;87.00;;;;;;5026806;28;20448;-80
2021/04/13 02:45:29;;;;;;;12.00;8.60;;;0.80;86.70;;;;;;5026603;28;20448;-81
2021/04/13 02:48:02;;;;;;;12.43;8.70;;;0.80;87.40;;;;;;5020217;28;20470;-81
2021/04/13 02:50:32;;;;;;;10.93;8.23;;;0.70;88.40;;;;;;5034925;28;20542;-83
2021/04/13 02:53:02;;;;;;;11.33;9.17;;;0.70;89.20;;;;;;5019169;28;20530;-82
2021/04/13 02:55:34;;;;;;;11.20;8.93;;;0.60;89.40;;;;;;5030534;28;20443;-81
2021/04/13 02:58:04;;;;;;;9.90;8.90;;;0.50;89.40;;;;;;5015730;28;20538;-81
2021/04/13 03:00:35;;;;;;;13.50;10.00;;;0.60;89.40;;;;;;5022703;28;20546;-82
2021/04/13 03:03:06;;;;;;;13.07;8.77;;;0.60;90.20;;;;;;5027350;28;20444;-81
2021/04/13 03:05:35;;;;;;;10.47;9.27;;;0.50;90.30;;;;;;5007236;28;20447;-82
2021/04/13 03:08:05;;;;;;;10.20;9.10;;;0.50;90.80;;;;;;5020654;28;21011;-82
2021/04/13 03:10:34;;;;;;;10.07;9.03;;;0.50;91.20;;;;;;5026298;28;20448;-82
2021/04/13 03:13:05;;;;;;;13.60;9.60;;;0.40;91.50;;;;;;5017599;28;20482;-82
2021/04/13 03:15:34;;;;;;;12.40;10.03;;;0.40;91.60;;;;;;5019671;28;20455;-82
2021/04/13 03:18:04;;;;;;;11.73;9.20;;;0.40;91.50;;;;;;5018406;28;20467;-84
2021/04/13 03:20:38;;;;;;;10.67;9.67;;;0.30;91.90;;;;;;5015655;28;20483;-82
2021/04/13 03:23:06;;;;;;;12.07;10.53;;;0.40;91.80;;;;;;5022143;28;20827;-82
2021/04/13 03:25:35;;;;;;;15.87;10.60;;;0.40;91.60;;;;;;5004797;28;20478;-82
2021/04/13 03:28:04;;;;;;;18.87;14.93;;;0.30;92.10;;;;;;5022904;28;20455;-81
2021/04/13 03:30:34;;;;;;;30.27;19.57;;;0.30;92.90;;;;;;5032877;28;20446;-82
2021/04/13 03:33:03;;;;;;;39.90;20.60;;;0.30;93.60;;;;;;5046104;28;20435;-84
2021/04/13 03:35:30;;;;;;;30.90;19.70;;;0.20;93.30;;;;;;5038087;28;20507;-84
2021/04/13 03:37:59;;;;;;;32.00;18.73;;;0.30;94.40;;;;;;5037186;28;20480;-83
2021/04/13 03:40:32;;;;;;;21.83;15.87;;;0.20;95.50;;;;;;5037873;28;20523;-83
2021/04/13 03:43:00;;;;;;;14.70;11.40;;;0.00;97.00;;;;;;5032456;28;20448;-82
2021/04/13 03:45:28;;;;;;;16.20;12.43;;;0.10;97.20;;;;;;5035879;28;20440;-82
2021/04/13 03:47:56;;;;;;;15.97;10.83;;;0.10;95.90;;;;;;5033454;28;20459;-84
2021/04/13 03:50:27;;;;;;;14.53;11.30;;;0.10;96.90;;;;;;5046871;28;20506;-83
2021/04/13 03:53:03;;;;;;;14.80;11.57;;;0.00;96.20;;;;;;5038841;28;20469;-80
2021/04/13 03:55:29;;;;;;;14.60;12.30;;;0.00;99.70;;;;;;5038115;28;20478;-82
2021/04/13 03:57:56;;;;;;;15.37;11.97;;;0.00;99.90;;;;;;5037530;28;20459;-82
2021/04/13 04:00:26;;;;;;;15.13;12.20;;;0.00;99.80;;;;;;5030919;28;20460;-82
2021/04/13 04:02:53;;;;;;;16.23;11.77;;;-0.10;99.90;;;;;;5028497;28;20487;-82
2021/04/13 04:05:22;;;;;;;15.87;12.43;;;-0.10;99.90;;;;;;5028956;28;20463;-81
2021/04/13 04:07:53;;;;;;;15.37;12.73;;;-0.20;99.90;;;;;;5022810;28;20448;-84
2021/04/13 04:10:48;;;;;;;13.73;11.43;;;-0.10;99.90;;;;;;5019457;28;20436;-81
2021/04/13 04:13:26;;;;;;;13.37;11.97;;;-0.10;99.90;;;;;;5023200;28;20954;-82
2021/04/13 04:16:04;;;;;;;15.90;13.20;;;-0.20;99.90;;;;;;5019431;28;20465;-80
2021/04/13 04:18:32;;;;;;;14.37;12.30;;;-0.20;99.90;;;;;;5015178;28;20493;-82
2021/04/13 04:21:12;;;;;;;14.67;11.80;;;-0.20;99.90;;;;;;4998911;28;20456;-81
2021/04/13 04:23:39;;;;;;;14.13;11.37;;;-0.20;99.90;;;;;;5021975;28;21026;-81
2021/04/13 04:26:07;;;;;;;15.30;12.10;;;-0.20;99.90;;;;;;5020038;28;20444;-82
2021/04/13 04:28:35;;;;;;;18.37;12.87;;;-0.20;99.90;;;;;;5020032;28;20539;-84
2021/04/13 04:31:34;;;;;;;15.73;12.30;;;-0.20;99.90;;;;;;5023435;28;20523;-82
2021/04/13 04:34:00;;;;;;;14.93;12.20;;;-0.30;99.90;;;;;;5018340;28;20459;-83
2021/04/13 04:36:30;;;;;;;13.50;12.10;;;-0.30;99.90;;;;;;5023076;28;20504;-83
2021/04/13 04:39:17;;;;;;;17.23;12.40;;;-0.30;99.90;;;;;;5016865;28;20486;-83
2021/04/13 04:41:46;;;;;;;21.43;12.93;;;-0.30;99.90;;;;;;5024699;28;20481;-82
2021/04/13 04:44:20;;;;;;;15.93;13.13;;;-0.30;99.90;;;;;;5021022;28;20868;-83
2021/04/13 04:46:46;;;;;;;15.83;12.33;;;-0.20;99.90;;;;;;5024693;28;20458;-83
2021/04/13 04:49:14;;;;;;;16.87;12.97;;;-0.20;99.90;;;;;;5025003;28;20468;-85
2021/04/13 04:51:42;;;;;;;14.07;12.57;;;-0.20;99.90;;;;;;5028401;28;20483;-84
2021/04/13 04:54:09;;;;;;;17.60;14.10;;;-0.20;99.90;;;;;;5033963;28;20475;-82
2021/04/13 04:56:36;;;;;;;15.20;12.23;;;-0.10;99.90;;;;;;5032892;28;20471;-82
2021/04/13 04:59:03;;;;;;;19.47;13.77;;;-0.10;99.90;;;;;;5033465;28;20431;-83
2021/04/13 05:01:31;;;;;;;19.20;14.00;;;-0.10;99.90;;;;;;5035881;28;20474;-84
2021/04/13 05:03:57;;;;;;;15.43;12.50;;;0.10;99.90;;;;;;5034856;28;20491;-80
2021/04/13 05:06:24;;;;;;;16.40;12.97;;;0.20;99.90;;;;;;5044884;28;20549;-81
2021/04/13 05:08:51;;;;;;;17.30;13.80;;;0.20;99.10;;;;;;5025523;28;20819;-82
2021/04/13 05:11:18;;;;;;;15.70;13.20;;;0.30;97.20;;;;;;5024623;28;21042;-83
2021/04/13 05:13:45;;;;;;;17.20;13.30;;;0.40;95.70;;;;;;5028000;28;20571;-83
2021/04/13 05:16:12;;;;;;;16.23;13.50;;;0.50;95.10;;;;;;5029467;28;20443;-81
2021/04/13 05:18:39;;;;;;;15.40;12.83;;;0.50;94.60;;;;;;5023983;28;20472;-84
2021/04/13 05:21:05;;;;;;;20.83;14.00;;;0.70;93.90;;;;;;5025602;28;20460;-82
2021/04/13 05:23:33;;;;;;;20.80;12.50;;;0.70;93.50;;;;;;5031208;28;20466;-83
2021/04/13 05:26:00;;;;;;;20.00;13.30;;;0.80;93.20;;;;;;5025438;28;20456;-82
2021/04/13 05:28:28;;;;;;;21.53;13.70;;;0.90;92.70;;;;;;5020852;28;20456;-81
2021/04/13 05:30:57;;;;;;;18.80;12.17;;;0.80;92.10;;;;;;5020777;28;20456;-81
2021/04/13 05:33:25;;;;;;;21.93;12.30;;;0.80;91.70;;;;;;5023267;28;21029;-83
2021/04/13 05:35:51;;;;;;;19.03;12.13;;;0.70;92.20;;;;;;5029915;28;20451;-82
2021/04/13 05:38:21;;;;;;;16.60;11.00;;;0.60;92.90;;;;;;5031957;28;20482;-82
2021/04/13 05:40:48;;;;;;;23.63;11.50;;;0.50;93.50;;;;;;5025591;28;20459;-82
2021/04/13 05:43:17;;;;;;;13.43;10.97;;;0.50;94.80;;;;;;5035830;28;20461;-81
2021/04/13 05:45:49;;;;;;;22.53;11.10;;;0.60;93.80;;;;;;5023406;28;20811;-81
2021/04/13 05:48:16;;;;;;;14.13;11.73;;;0.80;92.90;;;;;;5024709;28;20458;-82
2021/04/13 05:50:46;;;;;;;15.67;11.10;;;0.90;93.00;;;;;;5023321;28;20459;-80
2021/04/13 05:53:13;;;;;;;15.70;12.20;;;0.80;90.70;;;;;;5025457;28;20802;-80
2021/04/13 05:55:40;;;;;;;15.43;13.10;;;0.60;92.30;;;;;;5019083;28;21249;-82
2021/04/13 05:58:14;;;;;;;14.70;12.07;;;0.60;93.90;;;;;;5022153;28;20303;-80
2021/04/13 06:00:40;;;;;;;17.97;13.03;;;0.60;92.80;;;;;;5024265;28;20474;-80
2021/04/13 06:03:09;;;;;;;15.70;11.53;;;0.60;91.90;;;;;;5030392;28;20865;-82
2021/04/13 06:05:36;;;;;;;13.13;11.47;;;0.80;91.70;;;;;;5040356;28;20462;-79
2021/04/13 06:08:04;;;;;;;15.57;11.90;;;0.80;92.90;;;;;;5010909;28;20459;-80
2021/04/13 06:10:30;;;;;;;20.00;13.47;;;0.90;91.80;;;;;;5018263;28;20464;-79
2021/04/13 06:12:58;;;;;;;14.40;12.20;;;1.00;92.70;;;;;;5022191;28;20458;-80
2021/04/13 06:15:29;;;;;;;19.10;12.60;;;1.10;90.90;;;;;;5027751;28;20490;-81
2021/04/13 06:17:56;;;;;;;15.27;12.03;;;1.30;90.00;;;;;;5029183;28;20986;-81
2021/04/13 06:20:26;;;;;;;14.30;10.50;;;1.30;89.20;;;;;;5025032;28;20503;-80
2021/04/13 06:22:54;;;;;;;14.67;11.77;;;1.50;87.90;;;;;;5022007;28;20452;-82
2021/04/13 06:25:24;;;;;;;20.87;11.77;;;1.70;85.10;;;;;;5005278;28;20452;-81
2021/04/13 06:27:51;;;;;;;19.40;12.90;;;2.00;86.10;;;;;;5021017;28;20475;-82
2021/04/13 06:30:21;;;;;;;18.10;12.33;;;1.90;83.00;;;;;;5012339;28;20463;-82
2021/04/13 06:35:30;;;;;;;18.40;12.47;;;1.80;84.90;;;;;;5025199;28;20519;-82
2021/04/13 06:38:04;;;;;;;15.73;11.67;;;1.80;84.10;;;;;;5030969;28;20519;-82
2021/04/13 06:40:52;;;;;;;14.83;11.57;;;2.00;83.20;;;;;;5028281;28;20471;-81
2021/04/13 06:43:37;;;;;;;17.63;11.13;;;2.20;80.00;;;;;;5033436;28;20459;-81
2021/04/13 06:46:16;;;;;;;14.23;11.30;;;2.60;78.90;;;;;;5029372;28;20455;-81
2021/04/13 06:49:06;;;;;;;11.13;9.80;;;2.90;77.00;;;;;;5023106;28;20495;-81
2021/04/13 06:51:45;;;;;;;16.17;11.10;;;3.00;75.10;;;;;;5037423;28;20432;-82
2021/04/13 06:57:23;;;;;;;10.33;9.27;;;3.50;74.00;;;;;;5032009;28;20560;-81
2021/04/13 07:00:22;;;;;;;11.90;9.20;;;3.70;72.90;;;;;;5032509;28;20466;-81
2021/04/13 07:02:57;;;;;;;12.37;10.47;;;3.40;74.40;;;;;;5020550;28;20583;-81
2021/04/13 07:05:31;;;;;;;12.63;10.35;;;3.10;74.40;;;;;;5034014;28;20451;-83
2021/04/13 07:08:04;;;;;;;11.67;9.97;;;3.10;73.80;;;;;;5041390;28;20201;-79
2021/04/13 07:10:35;;;;;;;13.63;10.13;;;2.90;73.60;;;;;;5022022;28;20532;-81
2021/04/13 07:16:24;;;;;;;10.93;9.27;;;3.40;73.20;;;;;;5026816;28;20447;-80
2021/04/13 07:19:01;;;;;;;13.20;11.55;;;3.80;72.70;;;;;;5027532;28;20453;-77
2021/04/13 07:21:36;;;;;;;13.73;10.50;;;3.60;72.00;;;;;;5025402;28;20205;-80
2021/04/13 07:24:12;;;;;;;13.40;10.23;;;4.20;71.90;;;;;;5019674;28;20473;-79
2021/04/13 07:26:43;;;;;;;13.40;11.50;;;4.10;70.90;;;;;;5024108;28;20542;-78
2021/04/13 07:29:18;;;;;;;13.13;10.27;;;4.10;70.70;;;;;;5027205;28;20443;-79
2021/04/13 07:31:56;;;;;;;11.07;9.90;;;4.00;70.70;;;;;;5009054;28;20539;-80
2021/04/13 07:34:22;;;;;;;16.80;10.53;;;4.10;70.80;;;;;;5027564;28;20459;-79
2021/04/13 07:36:55;;;;;;;11.87;10.40;;;4.10;70.60;;;;;;5021905;28;20472;-79
2021/04/13 07:39:25;;;;;;;12.00;10.80;;;3.90;70.60;;;;;;5027294;28;20954;-78
2021/04/13 07:41:56;;;;;;;16.40;11.30;;;3.80;70.80;;;;;;5020520;28;20451;-79
2021/04/13 07:44:27;;;;;;;12.70;10.90;;;4.00;70.80;;;;;;5027880;28;20498;-79
2021/04/13 07:47:07;;;;;;;14.97;11.17;;;4.10;70.50;;;;;;5032774;28;20563;-83
2021/04/13 07:49:40;;;;;;;14.97;11.47;;;4.00;70.50;;;;;;5031796;28;20512;-80
2021/04/13 07:52:23;;;;;;;15.13;11.77;;;4.20;70.40;;;;;;5035562;28;20455;-81
2021/04/13 07:54:54;;;;;;;13.77;11.10;;;4.10;70.40;;;;;;5033679;28;20435;-79
2021/04/13 07:57:39;;;;;;;12.13;10.20;;;4.20;69.90;;;;;;5031556;28;20476;-79
2021/04/13 08:00:36;;;;;;;16.87;11.00;;;4.20;70.20;;;;;;5031021;28;20490;-81
2021/04/13 08:03:10;;;;;;;12.20;10.90;;;4.50;69.30;;;;;;5023980;28;20483;-80
2021/04/13 08:05:43;;;;;;;13.03;10.33;;;4.60;69.00;;;;;;5021725;28;20528;-79
2021/04/13 08:08:21;;;;;;;12.30;9.27;;;4.60;68.60;;;;;;5021884;28;20455;-79
2021/04/13 08:10:49;;;;;;;12.03;9.10;;;4.60;67.80;;;;;;5014719;28;20459;-79
2021/04/13 08:13:30;;;;;;;11.93;8.93;;;4.70;66.90;;;;;;5021937;28;20855;-79
2021/04/13 08:15:58;;;;;;;12.60;10.50;;;5.10;65.70;;;;;;5032733;28;20443;-79
2021/04/13 08:18:31;;;;;;;10.17;9.17;;;5.50;64.50;;;;;;5028852;28;20488;-80
2021/04/13 08:21:18;;;;;;;11.83;10.10;;;5.50;65.00;;;;;;5019700;28;20464;-80
2021/04/13 08:23:45;;;;;;;12.20;10.03;;;5.20;65.10;;;;;;5024374;28;20449;-81
2021/04/13 08:26:27;;;;;;;11.17;10.03;;;5.40;65.60;;;;;;5027264;28;20449;-79
2021/04/13 08:29:02;;;;;;;10.60;9.20;;;5.30;64.60;;;;;;5008479;28;20503;-79
2021/04/13 08:34:31;;;;;;;12.33;10.60;;;5.30;64.50;;;;;;5046787;28;20513;-79
2021/04/13 08:37:09;;;;;;;12.13;10.93;;;5.50;63.10;;;;;;5035961;28;20483;-84
2021/04/13 08:39:41;;;;;;;10.13;9.10;;;5.40;63.00;;;;;;5022889;28;20455;-81
2021/04/13 08:42:22;;;;;;;9.90;8.60;;;5.40;62.00;;;;;;5024895;28;21010;-79
2021/04/13 08:44:54;;;;;;;10.90;9.80;;;5.40;61.60;;;;;;5016317;28;20817;-79
2021/04/13 08:47:28;;;;;;;11.40;10.30;;;5.70;60.60;;;;;;5027799;28;20498;-82
2021/04/13 08:49:57;;;;;;;12.87;10.20;;;6.00;60.60;;;;;;5026726;28;20449;-79
2021/04/13 08:52:42;;;;;;;17.27;10.73;;;5.80;59.50;;;;;;5021077;28;20462;-80
2021/04/13 08:55:13;;;;;;;11.53;10.43;;;6.10;59.00;;;;;;5023203;28;20456;-79
2021/04/13 08:57:42;;;;;;;10.93;9.77;;;6.40;58.60;;;;;;5017489;28;20543;-78
2021/04/13 09:00:43;;;;;;;10.73;9.63;;;6.70;57.20;;;;;;5028299;28;20500;-80
2021/04/13 09:03:12;;;;;;;10.80;9.70;;;6.70;56.90;;;;;;5022195;28;21043;-80
2021/04/13 09:05:41;;;;;;;15.90;9.43;;;6.30;55.30;;;;;;5023463;28;20820;-79
2021/04/13 09:08:24;;;;;;;8.37;7.57;;;6.30;54.90;;;;;;5024860;28;20462;-80
2021/04/13 09:11:14;;;;;;;9.30;8.10;;;6.10;52.60;;;;;;5022848;28;20467;-82
2021/04/13 09:13:47;;;;;;;9.57;8.60;;;6.20;52.00;;;;;;5023021;28;20467;-80
2021/04/13 09:16:19;;;;;;;10.67;9.53;;;6.40;52.00;;;;;;5023374;28;20912;-80
2021/04/13 09:18:56;;;;;;;9.40;8.50;;;6.20;53.20;;;;;;5022847;28;20472;-78
2021/04/13 09:21:43;;;;;;;12.07;9.83;;;6.50;53.40;;;;;;5024409;28;20475;-80
2021/04/13 09:24:15;;;;;;;10.67;8.27;;;6.80;53.20;;;;;;5027387;28;20536;-81
2021/04/13 09:26:46;;;;;;;12.25;9.70;;;6.90;51.20;;;;;;5023434;28;20490;-81
2021/04/13 09:29:30;;;;;;;9.97;8.97;;;7.40;50.70;;;;;;5031085;28;20207;-81
2021/04/13 09:31:57;;;;;;;10.77;9.67;;;6.80;50.70;;;;;;5020875;28;20450;-80
2021/04/13 09:34:37;;;;;;;9.57;8.57;;;6.50;51.50;;;;;;5024987;28;20539;-81
2021/04/13 09:37:27;;;;;;;9.50;8.60;;;6.60;51.10;;;;;;5026686;28;20467;-79
2021/04/13 09:40:09;;;;;;;9.60;8.70;;;6.60;51.20;;;;;;5032334;28;20478;-81
2021/04/13 09:43:09;;;;;;;15.73;9.57;;;7.20;51.40;;;;;;5025247;28;20449;-83
2021/04/13 09:46:01;;;;;;;8.53;7.77;;;7.80;49.70;;;;;;5026611;28;20455;-83
2021/04/13 09:49:13;;;;;;;9.27;8.00;;;7.60;47.70;;;;;;5026422;28;20486;-85
2021/04/13 09:52:09;;;;;;;8.90;8.10;;;7.50;47.80;;;;;;5025198;28;20506;-79
2021/04/13 09:54:38;;;;;;;9.07;8.17;;;7.20;47.40;;;;;;5023354;28;20461;-82
2021/04/13 09:57:50;;;;;;;9.93;8.90;;;7.00;48.60;;;;;;5026983;28;20462;-84
2021/04/13 10:01:04;;;;;;;9.13;8.32;;;6.70;48.10;;;;;;5027101;28;20472;-82
2021/04/13 10:04:12;;;;;;;9.45;8.55;;;6.80;47.30;;;;;;5020603;28;20505;-79
2021/04/13 10:06:46;;;;;;;9.63;8.73;;;7.10;47.20;;;;;;5042412;28;20199;-82
2021/04/13 10:09:22;;;;;;;9.65;8.65;;;7.10;46.50;;;;;;5027490;28;20437;-82
2021/04/13 10:12:27;;;;;;;9.87;9.07;;;7.40;46.90;;;;;;5023590;28;20223;-82
2021/04/13 10:15:32;;;;;;;9.10;8.20;;;7.30;47.20;;;;;;5022409;28;20468;-81
2021/04/13 10:18:38;;;;;;;8.30;7.50;;;7.30;47.10;;;;;;5036215;28;20480;-82
2021/04/13 10:21:16;;;;;;;9.20;7.33;;;7.70;47.50;;;;;;5020723;28;21113;-82
2021/04/13 10:24:16;;;;;;;8.00;7.23;;;8.10;46.60;;;;;;5027897;28;20538;-84
2021/04/13 10:27:12;;;;;;;7.73;7.00;;;7.40;45.70;;;;;;5025213;28;20531;-82
2021/04/13 10:30:00;;;;;;;9.40;7.43;;;6.60;45.40;;;;;;5024819;28;20508;-81
2021/04/13 10:32:47;;;;;;;9.67;8.67;;;6.60;46.10;;;;;;5020467;28;20437;-83
2021/04/13 10:35:46;;;;;;;8.63;7.67;;;6.70;46.40;;;;;;5017436;28;20452;-79
2021/04/13 10:38:50;;;;;;;9.13;8.30;;;6.90;46.80;;;;;;5014618;28;20475;-80
2021/04/13 10:41:53;;;;;;;10.57;7.90;;;7.40;45.90;;;;;;5013012;28;20455;-83
2021/04/13 10:45:14;;;;;;;7.47;6.77;;;7.90;45.60;;;;;;5032794;28;20457;-81
2021/04/13 10:48:20;;;;;;;7.03;6.33;;;8.00;44.80;;;;;;5034073;28;20563;-82
2021/04/13 10:51:25;;;;;;;10.00;6.57;;;7.60;42.20;;;;;;5029540;28;20536;-80
2021/04/13 10:54:25;;;;;;;6.50;5.87;;;7.70;42.00;;;;;;5017030;28;20462;-79
2021/04/13 10:57:27;;;;;;;7.80;7.00;;;8.60;42.00;;;;;;5024551;28;20644;-79
2021/04/13 11:00:16;;;;;;;6.73;6.03;;;7.90;43.30;;;;;;5031319;28;20469;-80
2021/04/13 11:03:20;;;;;;;6.23;5.63;;;7.80;42.60;;;;;;5022684;28;20929;-80
2021/04/13 11:06:19;;;;;;;7.50;5.90;;;7.50;41.50;;;;;;5028108;28;20503;-79
2021/04/13 11:09:09;;;;;;;6.53;5.63;;;7.50;42.30;;;;;;5015744;28;20444;-78
2021/04/13 11:12:20;;;;;;;5.33;4.83;;;7.40;41.20;;;;;;5007580;28;20470;-82
2021/04/13 11:15:37;;;;;;;6.10;5.50;;;7.60;40.90;;;;;;5018246;28;20528;-81
2021/04/13 11:18:24;;;;;;;6.27;5.67;;;7.50;40.80;;;;;;4996299;28;20532;-79
2021/04/13 11:21:30;;;;;;;6.20;5.47;;;8.00;42.20;;;;;;5022928;28;20445;-80
2021/04/13 11:24:36;;;;;;;6.60;5.30;;;8.30;42.80;;;;;;5015022;28;20523;-81
2021/04/13 11:27:36;;;;;;;5.53;5.03;;;8.80;42.00;;;;;;5022659;28;20516;-79
2021/04/13 11:30:37;;;;;;;7.37;5.67;;;9.60;40.50;;;;;;5023987;28;20505;-80
2021/04/13 11:33:36;;;;;;;6.33;5.70;;;8.80;40.90;;;;;;5020472;28;20488;-81
2021/04/13 11:36:10;;;;;;;6.67;5.60;;;8.50;42.20;;;;;;5022829;28;20537;-79
2021/04/13 11:38:57;;;;;;;5.77;5.27;;;7.80;42.20;;;;;;5017444;28;20488;-83
2021/04/13 11:41:53;;;;;;;6.77;5.37;;;7.50;42.10;;;;;;5028344;28;20451;-81
2021/04/13 11:44:25;;;;;;;6.57;5.97;;;7.30;42.00;;;;;;5027838;28;20445;-85
2021/04/13 11:46:55;;;;;;;5.00;4.60;;;7.30;41.90;;;;;;5011167;28;20526;-82
2021/04/13 11:49:32;;;;;;;6.37;5.47;;;7.50;42.00;;;;;;5034130;28;20457;-83
2021/04/13 11:52:04;;;;;;;5.80;5.00;;;7.90;41.80;;;;;;5030049;28;20458;-80
2021/04/13 11:54:45;;;;;;;5.17;4.67;;;8.30;41.60;;;;;;5025171;28;20202;-81
2021/04/13 11:57:16;;;;;;;5.50;4.33;;;8.90;40.60;;;;;;5028178;28;20518;-80
2021/04/13 11:59:43;;;;;;;5.80;5.20;;;8.90;39.40;;;;;;5029409;28;20447;-83
2021/04/13 12:02:28;;;;;;;5.03;4.37;;;8.70;37.90;;;;;;5029426;28;20466;-81
2021/04/13 12:04:59;;;;;;;10.50;4.83;;;8.90;38.70;;;;;;5026871;28;20484;-82
2021/04/13 12:07:53;;;;;;;4.43;4.10;;;8.00;38.40;;;;;;5030209;28;20457;-83
2021/04/13 12:10:50;;;;;;;6.25;4.25;;;7.90;38.70;;;;;;4988781;28;20454;-79
2021/04/13 12:13:36;;;;;;;4.90;4.43;;;8.00;38.70;;;;;;5016781;28;20224;-79
2021/04/13 12:16:04;;;;;;;4.80;4.30;;;8.10;38.30;;;;;;5020551;28;20471;-79
2021/04/13 12:18:51;;;;;;;4.30;3.90;;;8.20;37.90;;;;;;5030394;28;20479;-79
2021/04/13 12:21:51;;;;;;;9.67;3.90;;;8.30;37.50;;;;;;5017259;28;20868;-80
2021/04/13 12:24:47;;;;;;;4.20;3.70;;;8.00;37.00;;;;;;5018107;28;20909;-82
2021/04/13 12:28:00;;;;;;;5.57;3.47;;;8.20;37.20;;;;;;5020332;28;20521;-83
2021/04/13 12:30:58;;;;;;;4.30;3.67;;;7.50;36.90;;;;;;5030400;28;20219;-84
2021/04/13 12:34:00;;;;;;;3.90;3.50;;;7.90;37.70;;;;;;5008487;28;20552;-80
2021/04/13 12:37:00;;;;;;;3.63;3.33;;;7.80;36.70;;;;;;5031341;28;20214;-82
2021/04/13 12:39:51;;;;;;;4.83;3.87;;;8.30;37.00;;;;;;4999501;28;20491;-84
2021/04/13 12:42:50;;;;;;;4.33;3.30;;;8.70;37.00;;;;;;5038619;28;20460;-81
2021/04/13 12:45:43;;;;;;;3.70;3.30;;;8.30;37.30;;;;;;5029688;28;20448;-79
2021/04/13 12:48:17;;;;;;;5.53;3.43;;;8.30;37.00;;;;;;5027553;28;20458;-80
2021/04/13 12:50:46;;;;;;;3.10;2.87;;;8.20;36.60;;;;;;5019546;28;21052;-79
2021/04/13 12:53:16;;;;;;;2.40;2.20;;;7.90;35.20;;;;;;5024006;28;20454;-80
2021/04/13 12:55:44;;;;;;;2.77;2.40;;;7.60;34.30;;;;;;5012607;28;20492;-80
2021/04/13 12:58:18;;;;;;;3.17;2.88;;;7.90;35.20;;;;;;5026374;28;20484;-80
2021/04/13 13:00:48;;;;;;;3.00;2.80;;;8.00;34.90;;;;;;5027063;28;20451;-80
2021/04/13 13:03:30;;;;;;;2.50;2.30;;;8.50;34.20;;;;;;5029136;28;20211;-80
2021/04/13 13:06:14;;;;;;;4.67;2.40;;;9.00;34.30;;;;;;5026544;28;20452;-81
2021/04/13 13:08:40;;;;;;;2.33;2.13;;;8.60;34.70;;;;;;5024247;28;20458;-82
2021/04/13 13:11:10;;;;;;;3.63;2.87;;;9.00;35.50;;;;;;5037873;28;20576;-86
2021/04/13 13:13:39;;;;;;;5.70;2.60;;;8.80;34.90;;;;;;5031370;28;20452;-80
2021/04/13 13:16:12;;;;;;;7.30;3.60;;;8.50;34.80;;;;;;5026073;28;20558;-83
2021/04/13 13:18:42;;;;;;;3.90;3.13;;;8.30;35.00;;;;;;5027657;28;20219;-81
2021/04/13 13:21:10;;;;;;;3.03;2.73;;;8.20;36.10;;;;;;5027557;28;20519;-83
2021/04/13 13:23:39;;;;;;;3.10;2.90;;;8.50;36.30;;;;;;5028583;28;20447;-81
2021/04/13 13:26:14;;;;;;;5.60;3.50;;;8.70;36.60;;;;;;5023716;28;20471;-79
2021/04/13 13:28:44;;;;;;;5.90;2.60;;;8.80;36.10;;;;;;5023724;28;20469;-83
2021/04/13 13:31:15;;;;;;;2.73;2.53;;;8.50;36.20;;;;;;5023713;28;20925;-84
2021/04/13 13:33:44;;;;;;;4.47;3.20;;;7.90;36.10;;;;;;5016682;28;20466;-87
2021/04/13 13:36:13;;;;;;;3.27;2.90;;;8.00;36.70;;;;;;5026418;28;20454;-82
2021/04/13 13:38:42;;;;;;;3.97;3.00;;;8.20;35.80;;;;;;5025595;28;20534;-80
2021/04/13 13:41:09;;;;;;;2.97;2.60;;;8.20;35.30;;;;;;5030259;28;20915;-80
2021/04/13 13:43:36;;;;;;;2.63;2.43;;;7.80;35.10;;;;;;5025203;28;20460;-80
2021/04/13 13:50:33;;;;;;;3.93;2.47;;;8.80;35.60;;;;;;5023555;28;20439;-80